Time;durP1;ratioP1;P1;durP2;ratioP2;P2;SDS_P1;SDS_P2;PMS_P1;PMS_P2;Temp;Humidity;BMP_temperature;BMP_pressure;BME280_temperature;BME280_humidity;BME280_pressure;Samples;Min_cycle;Max_cycle;Signal;HPM_P1;HPM_P2
2023/03/04 00:01:45;;;;;;;19.08;2.65;;;5.60;99.90;;;;;;5120687;27;20053;-87
2023/03/04 00:04:11;;;;;;;9.73;2.53;;;6.40;99.90;;;;;;5120855;27;20359;-87
2023/03/04 00:06:37;;;;;;;13.45;2.90;;;5.60;99.90;;;;;;5137625;27;20063;-86
2023/03/04 00:09:03;;;;;;;13.73;2.45;;;6.40;99.90;;;;;;5120777;27;20390;-84
2023/03/04 00:11:30;;;;;;;19.42;4.10;;;5.60;99.90;;;;;;5137628;27;20125;-87
2023/03/04 00:13:57;;;;;;;11.75;3.08;;;5.60;99.90;;;;;;5139568;27;20039;-86
2023/03/04 00:16:26;;;;;;;14.02;2.75;;;5.60;99.90;;;;;;5141090;27;20047;-86
2023/03/04 00:18:52;;;;;;;13.05;2.92;;;5.60;99.90;;;;;;5138655;27;20038;-88
2023/03/04 00:21:18;;;;;;;9.15;2.53;;;5.60;99.90;;;;;;5137372;27;20042;-87
2023/03/04 00:23:43;;;;;;;19.05;3.20;;;5.50;99.90;;;;;;5156024;27;20042;-87
2023/03/04 00:26:09;;;;;;;9.55;2.72;;;5.50;99.90;;;;;;5155726;27;20125;-87
2023/03/04 00:28:35;;;;;;;11.30;2.90;;;5.60;99.90;;;;;;5120447;27;20523;-86
2023/03/04 00:31:01;;;;;;;13.88;2.45;;;5.50;99.90;;;;;;5137239;27;20043;-86
2023/03/04 00:33:26;;;;;;;15.27;2.67;;;5.90;99.90;;;;;;5137999;27;20050;-88
2023/03/04 00:35:52;;;;;;;8.20;1.80;;;5.50;99.90;;;;;;5120619;27;20085;-87
2023/03/04 00:38:17;;;;;;;15.23;2.60;;;5.50;99.90;;;;;;5155704;27;20074;-85
2023/03/04 00:40:43;;;;;;;11.45;2.63;;;5.50;99.90;;;;;;5137720;27;20050;-87
2023/03/04 00:43:09;;;;;;;11.43;2.85;;;5.50;99.90;;;;;;5137574;27;20050;-87
2023/03/04 00:45:34;;;;;;;11.98;2.50;;;5.50;99.90;;;;;;5120299;27;20042;-86
2023/03/04 00:48:00;;;;;;;9.23;2.33;;;5.50;99.90;;;;;;5137386;27;20035;-87
2023/03/04 00:50:25;;;;;;;12.55;2.63;;;5.50;99.90;;;;;;5155436;27;20442;-87
2023/03/04 00:52:51;;;;;;;7.38;2.53;;;5.50;99.90;;;;;;5137647;27;20034;-87
2023/03/04 00:55:16;;;;;;;12.93;2.42;;;5.50;99.90;;;;;;5120198;27;20049;-86
2023/03/04 00:57:42;;;;;;;10.43;2.30;;;5.50;99.90;;;;;;5120086;27;20469;-87
2023/03/04 01:00:09;;;;;;;10.57;2.28;;;5.50;99.90;;;;;;5136860;27;20037;-88
2023/03/04 01:02:34;;;;;;;12.35;2.38;;;5.50;99.90;;;;;;5155318;27;20049;-87
2023/03/04 01:05:00;;;;;;;20.92;3.03;;;5.50;99.90;;;;;;5137679;27;20125;-86
2023/03/04 01:07:25;;;;;;;11.98;2.47;;;5.50;99.90;;;;;;5120099;27;20386;-88
2023/03/04 01:09:51;;;;;;;10.95;2.13;;;5.50;99.90;;;;;;5137055;27;20043;-85
2023/03/04 01:12:16;;;;;;;12.50;2.50;;;5.50;99.90;;;;;;5120154;27;20050;-84
2023/03/04 01:14:42;;;;;;;11.25;2.40;;;6.50;99.90;;;;;;5136841;27;20466;-86
2023/03/04 01:17:08;;;;;;;10.15;1.90;;;5.60;99.90;;;;;;5155126;27;20458;-84
2023/03/04 01:19:34;;;;;;;9.48;2.10;;;5.50;99.90;;;;;;5136976;27;20035;-85
2023/03/04 01:21:59;;;;;;;10.30;2.83;;;5.50;99.90;;;;;;5119978;27;20042;-85
2023/03/04 01:24:25;;;;;;;11.40;2.30;;;6.30;99.90;;;;;;5136973;27;20038;-85
2023/03/04 01:26:51;;;;;;;6.97;2.42;;;5.50;99.90;;;;;;5119768;27;20087;-84
2023/03/04 01:29:16;;;;;;;7.82;2.20;;;5.50;99.90;;;;;;5136886;27;20047;-84
2023/03/04 01:31:42;;;;;;;10.93;2.30;;;5.60;99.90;;;;;;5137851;27;20051;-84
2023/03/04 01:34:08;;;;;;;11.10;2.50;;;6.40;99.90;;;;;;5120177;27;20488;-86
2023/03/04 01:36:34;;;;;;;9.30;2.53;;;5.50;99.90;;;;;;5136955;27;20118;-84
2023/03/04 01:39:00;;;;;;;11.32;2.58;;;5.50;99.90;;;;;;5136828;27;20129;-84
2023/03/04 01:41:26;;;;;;;13.82;2.58;;;5.50;99.90;;;;;;5137365;27;20104;-83
2023/03/04 01:43:57;;;;;;;12.60;2.22;;;5.50;99.90;;;;;;5119901;27;20054;-84
2023/03/04 01:46:23;;;;;;;12.43;2.30;;;5.50;99.90;;;;;;5119830;27;20126;-84
2023/03/04 01:48:49;;;;;;;8.68;2.67;;;5.50;99.90;;;;;;5136262;27;20039;-84
2023/03/04 01:51:17;;;;;;;8.93;2.50;;;5.50;99.90;;;;;;5136730;27;20435;-84
2023/03/04 01:53:44;;;;;;;11.63;2.05;;;5.80;99.90;;;;;;5119617;27;20055;-84
2023/03/04 01:56:13;;;;;;;10.70;2.67;;;5.50;99.90;;;;;;5136407;27;20140;-85
2023/03/04 01:58:39;;;;;;;12.77;2.22;;;5.50;99.90;;;;;;5137375;27;20079;-84
2023/03/04 02:01:04;;;;;;;9.93;2.13;;;5.50;99.90;;;;;;5140098;27;20043;-84
2023/03/04 02:03:30;;;;;;;9.90;2.33;;;5.50;99.90;;;;;;5140066;27;20042;-84
2023/03/04 02:05:56;;;;;;;10.13;2.33;;;5.50;99.90;;;;;;5140324;27;20042;-84
2023/03/04 02:08:23;;;;;;;12.73;2.78;;;5.50;99.90;;;;;;5123084;27;20082;-84
2023/03/04 02:10:50;;;;;;;15.27;3.20;;;5.50;99.90;;;;;;5158088;27;20047;-85
2023/03/04 02:13:16;;;;;;;7.75;2.53;;;5.50;99.90;;;;;;5122846;27;20074;-85
2023/03/04 02:15:43;;;;;;;7.07;1.88;;;5.50;99.90;;;;;;5140106;27;20131;-85
2023/03/04 02:18:18;;;;;;;11.15;2.22;;;5.50;99.90;;;;;;5140047;27;20050;-84
2023/03/04 02:20:47;;;;;;;12.82;2.10;;;5.50;99.90;;;;;;5139710;27;20087;-84
2023/03/04 02:23:31;;;;;;;12.45;3.97;;;5.50;99.90;;;;;;5122823;27;20049;-85
2023/03/04 02:26:08;;;;;;;13.75;2.53;;;5.50;99.90;;;;;;5122625;27;20046;-84
2023/03/04 02:28:34;;;;;;;6.43;2.10;;;5.50;99.90;;;;;;5140312;27;20043;-86
2023/03/04 02:31:00;;;;;;;14.20;2.03;;;5.50;99.90;;;;;;5122633;27;20397;-85
2023/03/04 02:33:26;;;;;;;12.38;2.15;;;5.50;99.90;;;;;;5122787;27;20047;-85
2023/03/04 02:35:51;;;;;;;6.03;1.90;;;5.50;99.90;;;;;;5139885;27;20039;-84
2023/03/04 02:38:17;;;;;;;10.35;2.35;;;5.50;99.90;;;;;;5122566;27;20046;-85
2023/03/04 02:40:47;;;;;;;8.07;2.28;;;5.50;99.90;;;;;;5139812;27;20038;-86
2023/03/04 02:43:13;;;;;;;14.70;2.67;;;5.40;99.90;;;;;;5139562;27;20138;-85
2023/03/04 02:45:42;;;;;;;10.30;2.03;;;5.50;99.90;;;;;;5140126;27;20038;-85
2023/03/04 02:48:09;;;;;;;11.52;2.90;;;5.50;99.90;;;;;;5139402;27;20144;-85
2023/03/04 02:50:42;;;;;;;8.75;2.00;;;5.40;99.90;;;;;;5139174;27;20463;-86
2023/03/04 02:53:08;;;;;;;9.85;2.25;;;5.40;99.90;;;;;;5139562;27;20045;-85
2023/03/04 02:55:34;;;;;;;8.75;1.90;;;5.40;99.90;;;;;;5138797;27;20460;-85
2023/03/04 02:58:00;;;;;;;11.00;2.10;;;5.70;99.90;;;;;;5139736;27;20042;-84
2023/03/04 03:00:26;;;;;;;7.50;2.10;;;5.40;99.90;;;;;;5121545;27;20486;-86
2023/03/04 03:02:52;;;;;;;8.15;2.20;;;5.40;99.90;;;;;;5121988;27;20047;-84
2023/03/04 03:05:18;;;;;;;8.77;2.00;;;5.40;99.90;;;;;;5122028;27;20413;-84
2023/03/04 03:07:44;;;;;;;8.32;1.95;;;5.40;99.90;;;;;;5139269;27;20039;-85
2023/03/04 03:10:10;;;;;;;9.45;2.05;;;5.40;99.90;;;;;;5121942;27;20474;-84
2023/03/04 03:12:36;;;;;;;8.90;2.10;;;5.40;99.90;;;;;;5121811;27;20082;-85
2023/03/04 03:15:01;;;;;;;8.13;2.22;;;5.40;99.90;;;;;;5121702;27;20050;-84
2023/03/04 03:17:27;;;;;;;10.35;2.10;;;5.40;99.90;;;;;;5121953;27;20129;-83
2023/03/04 03:19:53;;;;;;;13.55;2.47;;;5.40;99.90;;;;;;5156951;27;20087;-84
2023/03/04 03:22:18;;;;;;;4.70;1.85;;;5.40;99.90;;;;;;5138648;27;20046;-84
2023/03/04 03:24:44;;;;;;;14.20;2.65;;;5.30;99.90;;;;;;5138706;27;20042;-84
2023/03/04 03:27:10;;;;;;;13.70;2.60;;;5.30;99.90;;;;;;5138553;27;20087;-84
2023/03/04 03:29:35;;;;;;;5.38;1.95;;;5.30;99.90;;;;;;5138372;27;20035;-84
2023/03/04 03:32:01;;;;;;;13.93;2.17;;;5.20;99.90;;;;;;5138309;27;20038;-84
2023/03/04 03:34:27;;;;;;;10.75;2.00;;;5.20;99.90;;;;;;5156780;27;20054;-84
2023/03/04 03:36:52;;;;;;;9.68;1.95;;;5.20;99.90;;;;;;5138349;27;20038;-84
2023/03/04 03:39:19;;;;;;;12.05;2.42;;;5.30;99.90;;;;;;5138214;27;20398;-85
2023/03/04 03:41:44;;;;;;;8.38;2.42;;;5.30;99.90;;;;;;5138089;27;20045;-85
2023/03/04 03:44:10;;;;;;;9.02;1.98;;;5.20;99.90;;;;;;5138350;27;20038;-84
2023/03/04 03:46:35;;;;;;;12.52;2.15;;;5.30;99.90;;;;;;5137874;27;20188;-85
2023/03/04 03:49:01;;;;;;;6.00;1.90;;;5.20;99.90;;;;;;5135077;27;20096;-84
2023/03/04 03:51:27;;;;;;;9.68;1.88;;;5.20;99.90;;;;;;5117562;27;20417;-84
2023/03/04 03:53:52;;;;;;;12.07;2.28;;;5.20;99.90;;;;;;5134619;27;20053;-84
2023/03/04 03:56:18;;;;;;;9.40;2.10;;;5.20;99.90;;;;;;5134594;27;20092;-85
2023/03/04 03:58:43;;;;;;;5.35;1.90;;;5.20;99.90;;;;;;5117551;27;20039;-85
2023/03/04 04:01:09;;;;;;;7.75;1.85;;;5.30;99.90;;;;;;5134211;27;20543;-85
2023/03/04 04:03:35;;;;;;;8.48;2.03;;;5.20;99.90;;;;;;5134575;27;20074;-84
2023/03/04 04:06:01;;;;;;;7.30;2.05;;;5.20;99.90;;;;;;5135382;27;20039;-85
2023/03/04 04:08:26;;;;;;;7.95;1.83;;;5.20;99.90;;;;;;5135325;27;20043;-85
2023/03/04 04:10:52;;;;;;;8.85;2.75;;;5.20;99.90;;;;;;5134155;27;20043;-84
2023/03/04 04:13:17;;;;;;;9.90;2.00;;;5.20;99.90;;;;;;5135271;27;20046;-85
2023/03/04 04:15:43;;;;;;;10.48;2.00;;;5.20;99.90;;;;;;5117391;27;20043;-85
2023/03/04 04:18:09;;;;;;;6.38;2.05;;;5.40;99.90;;;;;;5135170;27;20043;-85
2023/03/04 04:20:35;;;;;;;9.77;2.05;;;5.20;99.90;;;;;;5116679;27;20087;-84
2023/03/04 04:23:01;;;;;;;8.73;2.40;;;5.20;99.90;;;;;;5133780;27;20039;-84
2023/03/04 04:25:27;;;;;;;8.05;2.28;;;5.20;99.90;;;;;;5135095;27;20042;-84
2023/03/04 04:27:52;;;;;;;13.05;2.47;;;5.30;99.90;;;;;;5134600;27;20092;-84
2023/03/04 04:30:18;;;;;;;14.98;3.25;;;5.20;99.90;;;;;;5134986;27;20043;-84
2023/03/04 04:32:44;;;;;;;12.40;2.33;;;5.20;99.90;;;;;;5117233;27;20489;-85
2023/03/04 04:35:10;;;;;;;16.17;2.17;;;5.20;99.90;;;;;;5134932;27;20082;-84
2023/03/04 04:37:35;;;;;;;10.23;2.37;;;5.20;99.90;;;;;;5116767;28;20050;-84
2023/03/04 04:40:02;;;;;;;8.05;2.10;;;5.20;99.90;;;;;;5134804;27;20382;-85
2023/03/04 04:42:28;;;;;;;6.78;1.90;;;5.20;99.90;;;;;;5116865;27;20039;-84
2023/03/04 04:44:53;;;;;;;14.52;2.40;;;5.20;99.90;;;;;;5134212;27;20042;-85
2023/03/04 04:47:19;;;;;;;7.70;2.42;;;5.20;99.90;;;;;;5134020;27;20428;-85
2023/03/04 04:49:45;;;;;;;7.47;2.35;;;5.20;99.90;;;;;;5116544;27;20054;-84
2023/03/04 04:52:10;;;;;;;8.32;2.15;;;5.20;99.90;;;;;;5116690;28;20085;-85
2023/03/04 04:54:36;;;;;;;12.80;2.30;;;5.20;99.90;;;;;;5116885;28;20042;-84
2023/03/04 04:57:02;;;;;;;9.02;2.00;;;5.20;99.90;;;;;;5133322;28;20107;-85
2023/03/04 04:59:27;;;;;;;7.05;2.03;;;5.20;99.90;;;;;;5133398;28;20043;-85
2023/03/04 05:01:53;;;;;;;11.15;2.22;;;5.20;99.90;;;;;;5133281;28;20177;-84
2023/03/04 05:04:18;;;;;;;8.52;1.90;;;5.10;99.90;;;;;;5133738;28;20043;-84
2023/03/04 05:06:44;;;;;;;8.50;2.17;;;5.10;99.90;;;;;;5133468;28;20126;-84
2023/03/04 05:09:10;;;;;;;10.13;2.08;;;5.20;99.90;;;;;;5133366;28;20039;-84
2023/03/04 05:11:36;;;;;;;7.63;2.03;;;5.70;99.90;;;;;;5116562;28;20047;-84
2023/03/04 05:14:02;;;;;;;10.30;2.30;;;5.20;99.90;;;;;;5116906;28;20074;-86
2023/03/04 05:16:27;;;;;;;9.48;2.10;;;5.10;99.90;;;;;;5133542;28;20035;-85
2023/03/04 05:18:53;;;;;;;11.63;2.85;;;5.10;99.90;;;;;;5133129;28;20069;-85
2023/03/04 05:21:19;;;;;;;10.80;2.50;;;5.10;99.90;;;;;;5133469;28;20039;-85
2023/03/04 05:23:44;;;;;;;5.95;2.13;;;6.00;99.90;;;;;;5133258;28;20432;-85
2023/03/04 05:26:13;;;;;;;7.32;2.08;;;5.10;99.90;;;;;;5116362;28;20043;-85
2023/03/04 05:28:39;;;;;;;8.38;2.40;;;5.10;99.90;;;;;;5116338;28;20051;-84
2023/03/04 05:31:05;;;;;;;13.55;3.60;;;5.10;99.90;;;;;;5115831;28;20095;-84
2023/03/04 05:33:30;;;;;;;11.25;2.95;;;5.10;99.90;;;;;;5134124;27;20099;-85
2023/03/04 05:35:57;;;;;;;15.23;2.63;;;5.10;99.90;;;;;;5120281;27;20043;-84
2023/03/04 05:38:24;;;;;;;10.97;2.50;;;5.00;99.90;;;;;;5137354;27;20089;-85
2023/03/04 05:40:58;;;;;;;12.70;2.63;;;5.10;99.90;;;;;;5138251;27;20051;-85
2023/03/04 05:43:25;;;;;;;10.13;2.83;;;5.00;99.90;;;;;;5137137;27;20039;-85
2023/03/04 05:45:50;;;;;;;10.43;2.80;;;5.00;99.90;;;;;;5120160;27;20054;-85
2023/03/04 05:48:16;;;;;;;6.07;2.30;;;5.00;99.90;;;;;;5120074;27;20047;-85
2023/03/04 05:50:42;;;;;;;8.57;2.20;;;5.00;99.90;;;;;;5136965;27;20107;-85
2023/03/04 05:53:07;;;;;;;8.23;2.45;;;5.00;99.90;;;;;;5138124;27;20038;-85
2023/03/04 05:55:33;;;;;;;10.65;2.70;;;5.00;99.90;;;;;;5119918;27;20045;-85
2023/03/04 05:57:59;;;;;;;6.78;3.13;;;5.00;99.90;;;;;;5119851;27;20039;-85
2023/03/04 06:00:24;;;;;;;12.50;2.50;;;5.00;99.90;;;;;;5137822;27;20046;-84
2023/03/04 06:02:50;;;;;;;15.50;3.10;;;5.00;99.90;;;;;;5119813;27;20150;-85
2023/03/04 06:05:16;;;;;;;9.02;2.10;;;5.00;99.90;;;;;;5136555;27;20058;-85
2023/03/04 06:07:43;;;;;;;6.72;2.10;;;5.00;99.90;;;;;;5119552;27;20043;-85
2023/03/04 06:10:10;;;;;;;8.73;2.57;;;5.00;99.90;;;;;;5119787;27;20074;-86
2023/03/04 06:12:36;;;;;;;11.82;2.75;;;4.90;99.90;;;;;;5137869;27;20425;-86
2023/03/04 06:15:01;;;;;;;13.00;2.58;;;4.90;99.90;;;;;;5137688;27;20046;-88
2023/03/04 06:17:28;;;;;;;10.70;2.00;;;4.90;99.90;;;;;;5137482;27;20043;-85
2023/03/04 06:19:54;;;;;;;9.27;2.40;;;4.90;99.90;;;;;;5136073;27;20401;-88
2023/03/04 06:22:20;;;;;;;10.90;1.90;;;4.90;99.90;;;;;;5119222;27;20047;-85
2023/03/04 06:24:45;;;;;;;10.75;2.40;;;4.80;99.90;;;;;;5119640;27;20047;-88
2023/03/04 06:27:12;;;;;;;7.80;1.98;;;4.80;99.90;;;;;;5119366;27;20043;-84
2023/03/04 06:29:38;;;;;;;8.57;2.22;;;4.80;99.90;;;;;;5136119;27;20040;-83
2023/03/04 06:32:04;;;;;;;13.52;3.35;;;4.80;99.90;;;;;;5137565;27;20054;-86
2023/03/04 06:34:30;;;;;;;8.13;1.92;;;4.80;99.90;;;;;;5119220;27;20050;-87
2023/03/04 06:36:55;;;;;;;10.23;2.45;;;4.80;99.90;;;;;;5136197;27;20043;-87
2023/03/04 06:39:21;;;;;;;12.70;2.20;;;4.80;99.90;;;;;;5135963;27;20047;-86
2023/03/04 06:41:47;;;;;;;5.03;2.10;;;4.80;99.90;;;;;;5136248;27;20466;-86
2023/03/04 06:44:12;;;;;;;7.28;1.98;;;4.80;99.90;;;;;;5118796;27;20047;-85
2023/03/04 06:46:38;;;;;;;8.52;2.10;;;4.80;99.90;;;;;;5135754;27;20463;-85
2023/03/04 06:49:03;;;;;;;10.88;2.60;;;4.80;99.90;;;;;;5118673;27;20057;-85
2023/03/04 06:51:29;;;;;;;8.10;1.92;;;4.80;99.90;;;;;;5136837;27;20047;-85
2023/03/04 06:53:55;;;;;;;10.90;2.20;;;4.80;99.90;;;;;;5136879;27;20100;-85
2023/03/04 06:56:21;;;;;;;10.75;2.03;;;4.80;99.90;;;;;;5136069;27;20510;-84
2023/03/04 06:58:46;;;;;;;9.43;2.22;;;4.90;99.90;;;;;;5135973;27;20035;-88
2023/03/04 07:01:15;;;;;;;10.13;2.20;;;4.80;99.90;;;;;;5135588;27;20478;-86
2023/03/04 07:03:42;;;;;;;11.82;2.40;;;4.90;99.90;;;;;;5118666;27;20058;-86
2023/03/04 07:06:13;;;;;;;9.82;2.17;;;4.90;99.90;;;;;;5135043;27;20047;-86
2023/03/04 07:08:38;;;;;;;9.52;2.20;;;5.00;99.90;;;;;;5136952;27;20047;-86
2023/03/04 07:11:04;;;;;;;14.50;2.55;;;5.00;99.90;;;;;;5135438;27;20359;-87
2023/03/04 07:13:30;;;;;;;8.93;1.98;;;5.10;99.90;;;;;;5118719;27;20497;-85
2023/03/04 07:15:58;;;;;;;6.13;1.95;;;5.10;99.90;;;;;;5118419;27;20081;-88
2023/03/04 07:18:23;;;;;;;6.90;1.77;;;5.10;99.90;;;;;;5135359;27;20039;-85
2023/03/04 07:20:52;;;;;;;7.88;2.08;;;5.10;99.90;;;;;;5136264;27;20091;-84
2023/03/04 07:23:18;;;;;;;7.00;2.20;;;5.10;99.90;;;;;;5134978;27;20046;-85
2023/03/04 07:25:44;;;;;;;11.23;2.03;;;5.20;99.90;;;;;;5135087;27;20390;-85
2023/03/04 07:28:10;;;;;;;2.95;1.40;;;5.20;99.90;;;;;;5117977;27;20769;-82
2023/03/04 07:30:35;;;;;;;4.68;1.65;;;5.20;99.90;;;;;;5135249;27;20051;-86
2023/03/04 07:33:02;;;;;;;7.00;2.00;;;5.30;99.90;;;;;;5118041;27;20047;-89
2023/03/04 07:35:29;;;;;;;6.97;1.90;;;5.30;99.90;;;;;;5135126;27;20548;-82
2023/03/04 07:37:54;;;;;;;12.52;2.53;;;5.30;99.90;;;;;;5136385;27;20121;-83
2023/03/04 07:40:20;;;;;;;3.60;1.63;;;5.40;99.90;;;;;;5135891;27;20404;-84
2023/03/04 07:42:50;;;;;;;5.45;2.53;;;5.40;99.90;;;;;;5118257;27;20046;-86
2023/03/04 07:45:16;;;;;;;5.38;1.70;;;5.40;99.90;;;;;;5134867;27;20096;-83
2023/03/04 07:47:42;;;;;;;11.32;2.05;;;5.40;99.90;;;;;;5134944;27;20051;-84
2023/03/04 07:50:09;;;;;;;5.25;1.90;;;5.90;99.90;;;;;;5134512;27;20115;-88
2023/03/04 07:52:38;;;;;;;7.70;2.20;;;5.50;99.90;;;;;;5117960;27;20039;-87
2023/03/04 07:55:04;;;;;;;7.20;2.00;;;5.50;99.90;;;;;;5117502;27;20079;-88
2023/03/04 07:57:30;;;;;;;7.70;1.98;;;5.60;99.90;;;;;;5117234;27;20074;-84
2023/03/04 07:59:55;;;;;;;5.53;1.52;;;5.80;99.90;;;;;;5134244;27;20084;-84
2023/03/04 08:02:21;;;;;;;4.53;1.77;;;5.90;99.90;;;;;;5117329;27;20043;-85
2023/03/04 08:04:47;;;;;;;5.45;1.50;;;5.90;99.90;;;;;;5117442;27;20050;-85
2023/03/04 08:07:12;;;;;;;4.53;1.52;;;6.00;99.90;;;;;;5117453;27;20054;-85
2023/03/04 08:09:38;;;;;;;7.40;1.40;;;6.10;99.90;;;;;;5135236;27;20394;-91
2023/03/04 08:12:04;;;;;;;4.60;1.38;;;6.10;99.90;;;;;;5117281;27;20050;-85
2023/03/04 08:14:29;;;;;;;9.23;1.30;;;6.20;99.90;;;;;;5116955;27;20058;-87
2023/03/04 08:16:55;;;;;;;7.50;1.73;;;6.20;99.90;;;;;;5135047;27;20130;-85
2023/03/04 08:19:21;;;;;;;6.18;1.42;;;6.20;99.90;;;;;;5116943;27;20130;-84
2023/03/04 08:21:46;;;;;;;3.72;1.33;;;6.20;99.90;;;;;;5134287;27;20481;-82
2023/03/04 08:24:12;;;;;;;6.10;2.00;;;6.20;99.90;;;;;;5117887;27;20051;-87
2023/03/04 08:26:44;;;;;;;4.65;1.50;;;6.20;99.90;;;;;;5134317;27;20375;-82
2023/03/04 08:29:13;;;;;;;8.57;1.60;;;6.20;99.90;;;;;;5135374;27;20049;-82
2023/03/04 08:31:39;;;;;;;4.53;1.65;;;6.60;99.90;;;;;;5133675;27;20039;-85
2023/03/04 08:34:07;;;;;;;6.57;1.48;;;6.20;99.90;;;;;;5135355;27;20116;-88
2023/03/04 08:36:33;;;;;;;5.55;1.70;;;6.10;99.90;;;;;;5134305;27;20054;-85
2023/03/04 08:38:58;;;;;;;8.10;1.50;;;6.10;99.90;;;;;;5135180;27;20109;-86
2023/03/04 08:41:26;;;;;;;6.28;1.50;;;6.20;99.90;;;;;;5134446;27;20081;-90
2023/03/04 08:43:52;;;;;;;7.20;1.88;;;6.20;99.90;;;;;;5117041;27;20088;-88
2023/03/04 08:46:18;;;;;;;10.10;2.03;;;6.30;99.90;;;;;;5117042;27;20054;-89
2023/03/04 08:48:43;;;;;;;6.53;1.98;;;6.10;99.90;;;;;;5118366;27;20039;-88
2023/03/04 08:51:12;;;;;;;6.05;1.45;;;6.20;99.90;;;;;;5120537;27;20039;-86
2023/03/04 08:53:38;;;;;;;7.72;1.75;;;6.20;99.90;;;;;;5120853;27;20035;-89
2023/03/04 08:56:05;;;;;;;3.83;1.70;;;6.30;99.90;;;;;;5122369;27;20043;-89
2023/03/04 08:58:31;;;;;;;6.78;1.80;;;6.40;99.90;;;;;;5137976;27;20043;-87
2023/03/04 09:00:59;;;;;;;5.00;1.40;;;6.30;99.90;;;;;;5120656;27;20039;-90
2023/03/04 09:03:26;;;;;;;6.38;1.80;;;6.40;99.90;;;;;;5122141;27;20045;-88
2023/03/04 09:05:51;;;;;;;6.82;1.60;;;6.40;99.90;;;;;;5137526;27;20053;-88
2023/03/04 09:08:18;;;;;;;4.53;1.55;;;6.30;99.90;;;;;;5139622;27;20043;-89
2023/03/04 09:10:45;;;;;;;7.00;1.67;;;6.30;99.90;;;;;;5141507;27;20064;-86
2023/03/04 09:13:13;;;;;;;6.80;1.60;;;6.30;99.90;;;;;;5141818;27;20050;-91
2023/03/04 09:15:46;;;;;;;9.95;1.73;;;6.30;99.90;;;;;;5141468;27;20401;-88
2023/03/04 09:18:13;;;;;;;11.02;2.03;;;6.30;99.90;;;;;;5124644;27;20482;-89
2023/03/04 09:20:38;;;;;;;7.38;2.70;;;6.30;99.90;;;;;;5123692;27;20143;-85
2023/03/04 09:23:04;;;;;;;11.43;2.42;;;6.30;99.90;;;;;;5141455;27;20138;-87
2023/03/04 09:25:30;;;;;;;16.92;3.90;;;6.30;99.90;;;;;;5141205;27;20381;-85
2023/03/04 09:27:56;;;;;;;9.63;2.42;;;6.30;99.90;;;;;;5141096;27;20045;-90
2023/03/04 09:30:21;;;;;;;15.38;2.65;;;5.80;99.90;;;;;;5123911;27;20053;-86
2023/03/04 09:32:47;;;;;;;15.45;2.95;;;6.40;99.90;;;;;;5124082;27;20064;-88
2023/03/04 09:35:13;;;;;;;14.82;3.05;;;6.40;99.90;;;;;;5124420;27;20035;-90
2023/03/04 09:37:39;;;;;;;12.30;2.58;;;6.40;99.90;;;;;;5140968;27;20406;-90
2023/03/04 09:40:07;;;;;;;10.85;2.75;;;6.60;99.90;;;;;;5123187;27;20050;-84
2023/03/04 09:42:52;;;;;;;13.73;2.58;;;6.60;99.90;;;;;;5159181;27;20064;-86
2023/03/04 09:45:25;;;;;;;16.08;2.60;;;6.70;99.90;;;;;;5140753;27;20523;-87
2023/03/04 09:47:53;;;;;;;9.60;2.47;;;6.70;99.90;;;;;;5140962;27;20043;-89
2023/03/04 09:50:19;;;;;;;10.50;2.28;;;6.70;99.90;;;;;;5140622;27;20053;-85
2023/03/04 09:53:24;;;;;;;11.63;2.53;;;6.70;99.90;;;;;;5141247;27;20038;-92
2023/03/04 09:55:51;;;;;;;11.32;2.60;;;6.70;99.90;;;;;;5142001;27;20086;-86
2023/03/04 09:58:43;;;;;;;12.63;2.75;;;6.70;99.90;;;;;;5123772;27;20420;-90
2023/03/04 10:01:48;;;;;;;15.65;2.60;;;6.70;99.90;;;;;;5140922;27;20043;-90
2023/03/04 10:04:41;;;;;;;14.48;2.83;;;6.70;99.90;;;;;;5158899;27;20505;-86
2023/03/04 10:07:16;;;;;;;10.65;2.53;;;6.70;99.90;;;;;;5125507;27;20039;-86
2023/03/04 10:09:53;;;;;;;15.27;2.83;;;6.70;99.90;;;;;;5158971;27;20398;-87
2023/03/04 10:12:24;;;;;;;12.13;2.30;;;6.70;99.90;;;;;;5140468;27;20042;-84
2023/03/04 10:14:57;;;;;;;10.82;2.25;;;6.70;99.90;;;;;;5140336;27;20363;-83
2023/03/04 10:17:36;;;;;;;13.02;3.35;;;6.70;99.90;;;;;;5122983;27;20085;-86
2023/03/04 10:20:04;;;;;;;9.50;2.53;;;6.90;99.90;;;;;;5157594;27;20371;-83
2023/03/04 10:22:39;;;;;;;14.50;2.70;;;7.00;99.90;;;;;;5158245;27;20513;-84
2023/03/04 10:25:26;;;;;;;11.57;2.50;;;7.70;99.90;;;;;;5158524;27;20088;-86
2023/03/04 10:27:54;;;;;;;8.57;2.20;;;7.30;99.90;;;;;;5140682;27;20076;-90
2023/03/04 10:30:37;;;;;;;11.02;2.53;;;7.20;99.90;;;;;;5123610;27;20373;-87
2023/03/04 10:33:18;;;;;;;8.38;2.67;;;7.20;99.90;;;;;;5140211;27;20466;-89
2023/03/04 10:35:59;;;;;;;7.90;2.25;;;7.20;99.90;;;;;;5123251;27;20050;-87
2023/03/04 10:38:24;;;;;;;7.88;1.95;;;7.10;99.90;;;;;;5139887;27;20046;-87
2023/03/04 10:40:50;;;;;;;11.43;2.55;;;7.00;99.90;;;;;;5139778;27;20039;-84
2023/03/04 10:43:18;;;;;;;16.65;2.33;;;6.80;99.90;;;;;;5121789;27;20473;-86
2023/03/04 10:45:44;;;;;;;8.05;1.77;;;6.70;99.90;;;;;;5138426;27;20046;-83
2023/03/04 10:48:23;;;;;;;9.13;2.58;;;6.80;99.90;;;;;;5121903;27;20042;-83
2023/03/04 10:50:49;;;;;;;10.65;2.35;;;6.90;99.90;;;;;;5139394;27;20062;-83
2023/03/04 10:53:28;;;;;;;6.65;1.92;;;6.90;99.90;;;;;;5158001;27;20046;-85
2023/03/04 10:55:54;;;;;;;7.28;1.75;;;7.00;99.90;;;;;;5157951;27;20053;-85
2023/03/04 10:58:20;;;;;;;7.63;1.85;;;7.00;99.90;;;;;;5122410;27;20381;-86
2023/03/04 11:01:01;;;;;;;5.20;1.67;;;7.00;99.90;;;;;;5157972;27;20049;-84
2023/03/04 11:03:27;;;;;;;6.38;2.13;;;7.10;99.90;;;;;;5143998;27;20062;-88
2023/03/04 11:06:04;;;;;;;8.48;1.73;;;7.50;99.90;;;;;;5122218;27;20043;-85
2023/03/04 11:08:30;;;;;;;7.50;2.50;;;7.60;99.90;;;;;;5139102;27;20099;-85
2023/03/04 11:10:56;;;;;;;4.93;1.63;;;7.60;99.90;;;;;;5122532;27;20477;-86
2023/03/04 11:13:26;;;;;;;3.78;1.48;;;7.50;99.90;;;;;;5122157;27;20466;-86
2023/03/04 11:15:56;;;;;;;8.68;1.55;;;7.80;99.90;;;;;;5139386;27;20057;-88
2023/03/04 11:18:46;;;;;;;5.82;1.60;;;7.30;99.90;;;;;;5157331;27;20090;-87
2023/03/04 11:21:24;;;;;;;10.05;1.88;;;7.30;99.90;;;;;;5139476;27;20125;-87
2023/03/04 11:24:00;;;;;;;6.82;1.55;;;7.20;99.90;;;;;;5122329;27;20042;-84
2023/03/04 11:26:44;;;;;;;8.65;2.05;;;7.00;99.90;;;;;;5121459;27;20097;-90
2023/03/04 11:29:18;;;;;;;8.30;1.75;;;6.90;99.90;;;;;;5121267;27;20045;-82
2023/03/04 11:31:59;;;;;;;10.13;2.50;;;6.90;99.90;;;;;;5155753;27;20043;-83
2023/03/04 11:34:47;;;;;;;10.38;2.08;;;7.00;99.90;;;;;;5121421;27;20091;-84
2023/03/04 11:37:25;;;;;;;9.43;1.98;;;6.90;99.90;;;;;;5157206;27;20078;-91
2023/03/04 11:40:06;;;;;;;;;;;6.90;99.90;;;;;;5122202;27;20038;-88
2023/03/04 11:42:53;;;;;;;15.07;2.28;;;7.20;99.90;;;;;;5121536;27;20263;-85
2023/03/04 11:45:30;;;;;;;12.50;2.55;;;7.40;99.90;;;;;;5156824;27;20045;-84
2023/03/04 11:48:15;;;;;;;13.30;2.30;;;7.50;99.90;;;;;;5121986;27;20051;-85
2023/03/04 11:51:02;;;;;;;11.85;2.45;;;7.50;99.90;;;;;;5119125;27;20062;-87
2023/03/04 11:53:52;;;;;;;9.48;2.30;;;7.50;99.90;;;;;;5135164;27;20065;-82
2023/03/04 11:56:20;;;;;;;7.57;2.60;;;7.50;99.90;;;;;;5136061;27;20513;-84
2023/03/04 11:59:18;;;;;;;7.45;2.30;;;7.30;99.90;;;;;;5117485;27;20490;-79
2023/03/04 12:02:09;;;;;;;11.25;2.53;;;7.30;99.90;;;;;;5135722;27;20053;-81
2023/03/04 12:05:18;;;;;;;11.45;2.10;;;7.30;99.90;;;;;;5135590;27;20055;-82
2023/03/04 12:07:55;;;;;;;9.38;2.50;;;8.10;99.90;;;;;;5117757;27;20126;-88
2023/03/04 12:10:39;;;;;;;10.23;2.42;;;7.40;99.90;;;;;;5134678;27;20055;-82
2023/03/04 12:13:34;;;;;;;19.33;2.60;;;7.40;99.90;;;;;;5135151;27;20479;-87
2023/03/04 12:16:06;;;;;;;7.80;2.30;;;7.50;99.90;;;;;;5134130;27;20084;-84
2023/03/04 12:18:49;;;;;;;14.07;2.33;;;8.50;99.90;;;;;;5135675;27;20066;-82
2023/03/04 12:21:37;;;;;;;10.75;2.40;;;7.60;99.90;;;;;;5134503;27;20547;-83
2023/03/04 12:24:41;;;;;;;13.02;2.65;;;7.60;99.90;;;;;;5135575;27;20440;-80
2023/03/04 12:27:26;;;;;;;16.63;2.67;;;7.50;99.90;;;;;;5135037;27;20054;-82
2023/03/04 12:29:54;;;;;;;14.25;2.72;;;7.50;99.90;;;;;;5133446;27;20043;-83
2023/03/04 12:32:35;;;;;;;8.23;2.10;;;7.70;99.90;;;;;;5134901;27;20082;-84
2023/03/04 12:35:22;;;;;;;8.43;2.03;;;7.80;99.90;;;;;;5134086;27;20079;-82
2023/03/04 12:38:07;;;;;;;11.07;2.70;;;8.00;99.90;;;;;;5132735;27;20100;-85
2023/03/04 12:41:05;;;;;;;8.80;2.22;;;9.00;99.90;;;;;;5116883;28;20047;-83
2023/03/04 12:43:35;;;;;;;11.07;1.98;;;8.40;99.90;;;;;;5116456;27;20040;-84
2023/03/04 12:46:26;;;;;;;10.20;2.22;;;8.50;99.90;;;;;;5135003;27;20055;-83
2023/03/04 12:49:17;;;;;;;12.15;1.83;;;8.30;99.90;;;;;;5118355;27;20050;-86
2023/03/04 12:52:04;;;;;;;9.73;1.80;;;8.20;99.90;;;;;;5137667;27;20042;-83
2023/03/04 12:54:40;;;;;;;10.07;2.40;;;8.10;99.90;;;;;;5137518;27;20046;-83
2023/03/04 12:57:12;;;;;;;8.40;1.98;;;7.90;99.90;;;;;;5155161;27;20074;-84
2023/03/04 12:59:50;;;;;;;8.85;2.13;;;7.80;99.90;;;;;;5137260;27;20121;-83
2023/03/04 13:02:28;;;;;;;8.63;1.85;;;7.60;99.90;;;;;;5137332;27;20056;-83
2023/03/04 13:05:24;;;;;;;6.85;1.48;;;7.70;99.90;;;;;;5137389;27;20135;-82